Timeline UpdatesTrip UpdatesNews PostsPvt PostsTravel TipsAdmin PostsConv PostsFollowed PostsChat RequestsBlog PostsPNR Posts

Disclaimer
Search
 
 
Mon Jul 28, 2014 23:58:02 ISTHomeTrainsΣChainsAtlasPNRForumGalleryNewsFAQTripsMembersLoginFeedback
No Recent News for this Train
Other Trains in the News **new
Latest...
Cancelled on 15/7/14
Mon Jul 14, 2014 (07:56PM)
⇐ Return Journey: Train# 15484

14083⇒15483/Sikkim Mahananda Express

Jul 28 departure has been Rescheduled to start 8h 15m late
New Time: 15:30
Jan 14 2014 (8:05PM)
Change Departure Station:
Change Arrival Station:
Post a Train Travel TipPost a Train Travel Tip **new
Post a Comment/Question/Picture/VideoPost a Comment/Question/Picture/Video
Pantry/Catering
✓ Pantry Car Avbl
✓ Catering Avbl
RSA - Rake Sharing
Rake/Coach Composition
LOCO-SLR-GS-GS-GS-AB-B1-PC-S11-PC-S10-S9-S8-S7-S6-S5-S4-S3-S2-S1-GS-GS-GS-SLR
Loco
SGUJ WDP-4 (APDJ to PNBE), GZB/MGS WAP-4 (PNBE to DLI)
News    PNR    Forum    Time-Table    Availability    Fare Chart    Map    Arr/Dep History    Trips    Gallery    ΣChains    X/O    Timeline    
Travel Time: 34h 55m    56 halts    Distance: 1652 km    Avg Speed: 47 km/hr
Type: Mail/Express
Zone: NFR/Northeast Frontier
Departs @ 07:15 (Avg 4h 45m late)
Platform# 1
SMTWTFS
Alipur Duar Junction/APDJ 
Arrives @ 18:10 +1 night (Avg 6h 26m late)
Platform# 11
SMTWTFS
Old Delhi Junction/DLI 

56 halts. 287 intermediate Stations between Alipur Duar Junction and Old Delhi Junction

Show ALL intermediate Stations  Show Old Time-Table

#CodeStation NameX/OArrivesAvgDepartsAvgHaltPFDay#KmSpeedElevZoneAddress
1APDJ»Alipur Duar Junction (3)»  -07:15+4:45110.06053mNFRDist - Alipurduar, West Bengal
2HSAHasimara (3)X  07:50+4:4707:52+4:482m--134.856123mNFRDist - Alipurduar, West Bengal
3DLODalgaon (3)  08:19+4:5508:20+4:561m1159.950120mNFRDist : Alipurduar, West Bengal
4BNVBinnaguri (3)  08:31+4:5808:32+4:591m--169.162132mNFRDist : jalpaiguri, West Bengal
5NMZNew Mal Junction (3)X  09:15+5:1209:20+5:205m--1113.441161mNFRDist - Jalpaiguri, West Bengal
6SGUJSiliguri Junction (5)X  10:30+5:0710:35+5:205m--1161.229120mNFRDist-Darjeeling Siliguri-734001, West Bengal
7NJPNew Jalpaiguri Junction (8)X  10:50+5:1211:10+5:0820m31168.576114mNFRCity-Siliguri . Dist-Jalpaiguri, West Bengal
8AUBAluabari Road (2)  11:55+5:2311:57+5:252m21225.2730mNFRDist - uttar Dinajpur, West Bengal
9KNEKishanGanj (3)X  12:22+5:2012:27+5:205m21255.86852mNFRKishanganj, Bihar
10DLKDalkhola (3)X  12:52+5:3812:53+5:421m101284.37644mNFRDalkola, West Bengal
11BOEBarsoi Junction (3)  13:16+5:4313:18+5:432m--1313.45737mNFRdist- katihar, Bihar
12AZRAzamnagar Road (2)  13:32+5:4513:33+5:461m--1326.73534mNFRAzamnagar, Bihar
13LAVLabha  14:09+5:4214:10+5:351m--1347.81829mNFRNational Highway 81, Bihar
14KIRKatihar Junction (7)XO  15:25+5:2615:45+5:4220m51370.64335mNFRKatihar 854105, Bihar
15SMOSemapur16:01+5:2616:03+5:262m--1382.1-35mECRKatihar, Bihar
16CRRKaragola Road  16:06+5:2716:07+5:311m--1392.96836mECRLachhmipur, Bihar
17KUEKurselaX  16:22+5:3616:23+5:401m--1409.97431mECRNH 31, Bihar
18NNANaugachia  16:38+5:4316:39+5:361m--1428.46037mECRBhagalpur, Bihar
19THBThana Bihpur JunctionXO  16:55+5:3716:56+5:401m--1444.31639mECRThana Bihpur, Bihar
20NNRNarayanpur  17:24+5:2517:25+5:291m--1451.95039mECRNarayanpur, Bihar
21PSRPasrahaX  17:39+5:3117:40+5:361m--1463.55341mECRPasraha, Bihar
22MSKMahes Khunt  17:54+5:3817:55+5:441m--1475.95737mECRMaheshkhunt, Bihar
23MNEMansi Junction (3)X  18:06+5:4618:07+5:371m--1486.33143mECRMansi, Bihar
24KGGKhagaria Junction (3)X  18:24+5:4318:25+5:341m--1495.15343mECRKhagaria, Bihar
25SKJSahibpur Kamal Junction (2)  18:39+5:3518:40+5:361m--1507.54241mECRShahpur Kamal, Bihar
26LKNLakhminia  18:54+5:4518:55+5:481m--1517.22245mECRBegusarai, Bihar
27BGSBegu Sarai (3)X  19:44+5:4319:45+5:461m--1535.015 ECRBegusarai, Bihar
28BJUBarauni Junction (9)X  20:40+5:1820:45+5:235m11548.41949mECRBegusarai, Bihar
29MKAMokama Junction (3)X  21:51+6:0721:53+6:082m31569.18848mECRPatna, Bihar
30BKPBakhtiyarpur Junction (5)  22:23+6:0222:25+6:032m--1613.24951mECRPatna, Bihar
31PNBEPatna Junction (10)X  23:20+5:5823:45+5:4625m41658.33557mECRPatna 800001, Bihar
32DNRDanapur (5)  00:01+6:0700:03+6:072m--2667.79158mECRKhagaul, Bihar
33ARAAra Junction (3)  00:29+6:0500:31+6:062m--2707.37163mECRarrah( 06182-233411), Bihar
34BXRBuxar (3)X  01:29+5:4201:32+5:423m--2775.84267mECRBuxar, Bihar
35MGSMughal Sarai Junction (8)X  03:45+5:5204:00+5:5115m42869.76483mECRMughalsarai 232101, Uttar Pradesh
36MZPMirzapur (3)  04:59+5:4405:00+5:481m--2932.94088mNCRMirzapur, Uttar Pradesh
37BDLVindhyachal (3)X  05:11+5:5005:12+5:521m--2940.28888mNCRMirzapur, Uttar Pradesh
38NYNNaini Junction (4)  06:03+5:3506:05+5:362m221015.01798mNCRAllahabad, Uttar Pradesh
39ALDAllahabad Junction (10)X  06:30+5:5406:35+5:565m321022.189100mNCRAllahabad 211003, Uttar Pradesh
40FTPFatehpur (3)  07:54+6:1107:55+6:051m--21138.862120mNCRFatehpur, Uttar Pradesh
41CNBKanpur Central (10)  09:10+6:3009:20+6:3510m521216.441128mNCRKANPUR-208 001, Uttar Pradesh
42PNKPanki (3)X  09:37+6:1709:38+6:181m--21227.976129mNCRKANPUR-208 020, Uttar Pradesh
43RURARura (4)X  10:04+5:5110:05+5:521m--21260.771137mNCRJhinjhak, Uttar Pradesh
44JJKJhinjhak (3)  10:21+5:5510:22+5:571m321279.859140mNCRAuraiya, Uttar Pradesh
45PHDPhaphund (4)X  10:42+6:0010:43+5:491m--21299.653146mNCRdist. Auraiya, Uttar Pradesh
46ULDAchalda (3)X  11:02+5:2811:03+5:311m--21316.465147mNCRDist. Auraiya(05688-1072), Uttar Pradesh
47BNTBharthana (3)X  11:21+5:2211:22+5:241m--21335.952147mNCRBharthana, Uttar Pradesh
48ETWEtawah (5)X  11:45+5:4011:46+5:441m221355.872154mNCRDistt. Etawah, Uttar Pradesh
49SKBShikohabad Junction (4)  12:32+5:2312:33+5:251m321411.257166mNCRDistrict Firozabad, Uttar Pradesh
50FZDFirozabad (4)O  12:54+5:0512:55+5:071m321431.025164mNCRFirozabad, Uttar Pradesh
51TDLTundla Junction (5)  13:35+5:2713:45+5:2710m221447.670167mNCRDistt.Firozabad, Uttar Pradesh
52JLSJalesar Road (1)  14:09+5:2014:10+5:231m121475.563172mNCRMDR 106W, Uttar Pradesh
53HRSHathras Junction (3)  14:29+5:2014:30+5:011m--21495.660183mNCRMahamaya Nagar(05722-242803), Uttar Pradesh
54ALJNAligarh Junction (4)O  15:00+6:1115:05+6:115m221525.775192mNCRAligarh, Uttar Pradesh
55KRJKhurja Junction (4)XO  15:40+5:5715:45+5:555m--21569.238199mNCRBulandshahr, Uttar Pradesh
56GZBGhaziabad Junction (6)X  17:25+5:4917:30+5:475m321631.943217mNRGhaziabad, Uttar Pradesh
57DSAShahdara Junction (4)  17:49+6:3817:50+6:391m--21645.519212mNRCircular Rd, Delhi NCT
58DLI•Old Delhi Junction (16)•  18:10+6:26-1121651.8-219mNRNear Chandni Chowk Metro Station, Delhi NCT
Scroll to Top
Scroll to Bottom